sensor_id;sensor_type;location;lat;lon;timestamp;pressure;altitude;pressure_sealevel;temperature;humidity
55801;BME280;41730;51.960;20.158;2023-07-08T00:01:40;100766.16;;;18.28;52.06
55801;BME280;41730;51.960;20.158;2023-07-08T00:04:12;100765.97;;;18.15;52.26
55801;BME280;41730;51.960;20.158;2023-07-08T00:06:44;100767.95;;;17.99;52.73
55801;BME280;41730;51.960;20.158;2023-07-08T00:09:16;100760.73;;;17.90;53.05
55801;BME280;41730;51.960;20.158;2023-07-08T00:11:47;100762.88;;;17.82;53.19
55801;BME280;41730;51.960;20.158;2023-07-08T00:14:19;100761.63;;;17.70;53.51
55801;BME280;41730;51.960;20.158;2023-07-08T00:16:50;100757.05;;;17.59;53.81
55801;BME280;41730;51.960;20.158;2023-07-08T00:19:22;100762.94;;;17.59;53.88
55801;BME280;41730;51.960;20.158;2023-07-08T00:21:54;100763.38;;;17.63;54.14
55801;BME280;41730;51.960;20.158;2023-07-08T00:24:26;100765.79;;;17.77;53.90
55801;BME280;41730;51.960;20.158;2023-07-08T00:26:58;100763.23;;;17.83;53.60
55801;BME280;41730;51.960;20.158;2023-07-08T00:29:29;100764.02;;;17.76;53.79
55801;BME280;41730;51.960;20.158;2023-07-08T00:32:01;100765.34;;;17.73;53.83
55801;BME280;41730;51.960;20.158;2023-07-08T00:34:33;100761.53;;;17.78;53.83
55801;BME280;41730;51.960;20.158;2023-07-08T00:37:05;100761.57;;;17.79;53.56
55801;BME280;41730;51.960;20.158;2023-07-08T00:39:37;100762.85;;;17.66;53.95
55801;BME280;41730;51.960;20.158;2023-07-08T00:42:17;100767.06;;;17.65;53.96
55801;BME280;41730;51.960;20.158;2023-07-08T00:44:50;100767.10;;;17.75;53.60
55801;BME280;41730;51.960;20.158;2023-07-08T00:47:21;100765.69;;;17.87;53.41
55801;BME280;41730;51.960;20.158;2023-07-08T00:49:55;100762.83;;;17.91;53.07
55801;BME280;41730;51.960;20.158;2023-07-08T00:52:29;100764.15;;;17.78;53.53
55801;BME280;41730;51.960;20.158;2023-07-08T00:55:04;100762.94;;;17.83;53.36
55801;BME280;41730;51.960;20.158;2023-07-08T00:57:40;100762.91;;;17.88;53.08
55801;BME280;41730;51.960;20.158;2023-07-08T01:00:16;100762.73;;;17.77;53.12
55801;BME280;41730;51.960;20.158;2023-07-08T01:02:52;100760.18;;;17.65;53.54
55801;BME280;41730;51.960;20.158;2023-07-08T01:05:28;100757.98;;;17.64;53.53
55801;BME280;41730;51.960;20.158;2023-07-08T01:08:03;100757.23;;;17.59;53.57
55801;BME280;41730;51.960;20.158;2023-07-08T01:10:41;100758.55;;;17.53;53.78
55801;BME280;41730;51.960;20.158;2023-07-08T01:13:16;100761.57;;;17.45;53.78
55801;BME280;41730;51.960;20.158;2023-07-08T01:15:49;100757.55;;;17.25;54.18
55801;BME280;41730;51.960;20.158;2023-07-08T01:18:21;100752.86;;;17.26;54.20
55801;BME280;41730;51.960;20.158;2023-07-08T01:20:54;100750.04;;;17.26;54.13
55801;BME280;41730;51.960;20.158;2023-07-08T01:23:27;100753.15;;;17.30;54.09
55801;BME280;41730;51.960;20.158;2023-07-08T01:25:58;100750.98;;;17.36;53.92
55801;BME280;41730;51.960;20.158;2023-07-08T01:28:31;100750.63;;;17.31;54.01
55801;BME280;41730;51.960;20.158;2023-07-08T01:31:03;100752.63;;;17.24;54.02
55801;BME280;41730;51.960;20.158;2023-07-08T01:33:35;100753.32;;;17.18;54.33
55801;BME280;41730;51.960;20.158;2023-07-08T01:36:08;100754.01;;;17.06;54.44
55801;BME280;41730;51.960;20.158;2023-07-08T01:38:39;100748.77;;;16.95;54.68
55801;BME280;41730;51.960;20.158;2023-07-08T01:41:14;100751.16;;;16.89;54.26
55801;BME280;41730;51.960;20.158;2023-07-08T01:43:47;100747.80;;;16.77;54.94
55801;BME280;41730;51.960;20.158;2023-07-08T01:46:22;100742.88;;;16.68;54.89
55801;BME280;41730;51.960;20.158;2023-07-08T01:48:58;100745.23;;;16.63;55.26
55801;BME280;41730;51.960;20.158;2023-07-08T01:51:31;100752.12;;;16.45;55.60
55801;BME280;41730;51.960;20.158;2023-07-08T01:54:03;100750.97;;;16.42;55.70
55801;BME280;41730;51.960;20.158;2023-07-08T01:56:34;100752.06;;;16.49;55.48
55801;BME280;41730;51.960;20.158;2023-07-08T01:59:06;100752.73;;;16.44;55.59
55801;BME280;41730;51.960;20.158;2023-07-08T02:01:38;100752.09;;;16.41;55.63
55801;BME280;41730;51.960;20.158;2023-07-08T02:04:10;100754.36;;;16.40;55.63
55801;BME280;41730;51.960;20.158;2023-07-08T02:06:41;100755.66;;;16.34;55.68
55801;BME280;41730;51.960;20.158;2023-07-08T02:09:13;100751.72;;;16.29;55.84
55801;BME280;41730;51.960;20.158;2023-07-08T02:11:44;100744.73;;;16.25;55.89
55801;BME280;41730;51.960;20.158;2023-07-08T02:14:16;100749.41;;;16.15;56.21
55801;BME280;41730;51.960;20.158;2023-07-08T02:16:48;100750.89;;;16.23;56.09
55801;BME280;41730;51.960;20.158;2023-07-08T02:19:21;100752.92;;;16.26;56.09
55801;BME280;41730;51.960;20.158;2023-07-08T02:21:53;100752.63;;;16.29;55.93
55801;BME280;41730;51.960;20.158;2023-07-08T02:24:25;100753.05;;;16.15;56.21
55801;BME280;41730;51.960;20.158;2023-07-08T02:26:57;100757.13;;;16.04;56.44
55801;BME280;41730;51.960;20.158;2023-07-08T02:29:28;100756.64;;;15.86;56.85
55801;BME280;41730;51.960;20.158;2023-07-08T02:32:02;100755.70;;;15.88;56.90
55801;BME280;41730;51.960;20.158;2023-07-08T02:34:33;100755.92;;;16.01;56.65
55801;BME280;41730;51.960;20.158;2023-07-08T02:37:05;100756.34;;;16.00;56.50
55801;BME280;41730;51.960;20.158;2023-07-08T02:39:37;100757.86;;;15.93;56.72
55801;BME280;41730;51.960;20.158;2023-07-08T02:42:09;100756.27;;;15.91;56.75
55801;BME280;41730;51.960;20.158;2023-07-08T02:44:40;100755.54;;;15.93;56.77
55801;BME280;41730;51.960;20.158;2023-07-08T02:47:12;100754.61;;;16.03;56.57
55801;BME280;41730;51.960;20.158;2023-07-08T02:49:44;100754.48;;;15.97;56.71
55801;BME280;41730;51.960;20.158;2023-07-08T02:52:17;100750.60;;;16.06;56.84
55801;BME280;41730;51.960;20.158;2023-07-08T02:54:48;100745.94;;;16.23;56.57
55801;BME280;41730;51.960;20.158;2023-07-08T02:57:20;100742.84;;;16.31;56.47
55801;BME280;41730;51.960;20.158;2023-07-08T02:59:51;100736.28;;;16.40;56.37
55801;BME280;41730;51.960;20.158;2023-07-08T03:02:24;100741.88;;;16.39;56.57
55801;BME280;41730;51.960;20.158;2023-07-08T03:04:56;100736.17;;;16.61;56.44
55801;BME280;41730;51.960;20.158;2023-07-08T03:07:28;100734.75;;;16.93;56.09
55801;BME280;41730;51.960;20.158;2023-07-08T03:10:00;100737.41;;;17.24;56.10
55801;BME280;41730;51.960;20.158;2023-07-08T03:12:32;100740.54;;;17.59;55.91
55801;BME280;41730;51.960;20.158;2023-07-08T03:15:05;100736.95;;;18.16;54.92
55801;BME280;41730;51.960;20.158;2023-07-08T03:17:36;100740.19;;;18.62;54.22
55801;BME280;41730;51.960;20.158;2023-07-08T03:20:10;100745.07;;;19.16;53.39
55801;BME280;41730;51.960;20.158;2023-07-08T03:22:41;100749.52;;;19.75;52.52
55801;BME280;41730;51.960;20.158;2023-07-08T03:25:13;100751.27;;;20.32;51.59
55801;BME280;41730;51.960;20.158;2023-07-08T03:27:45;100752.96;;;20.80;50.71
55801;BME280;41730;51.960;20.158;2023-07-08T03:30:20;100751.29;;;21.16;50.04
55801;BME280;41730;51.960;20.158;2023-07-08T03:32:57;100756.82;;;21.59;49.43
55801;BME280;41730;51.960;20.158;2023-07-08T03:35:35;100758.88;;;21.98;48.58
55801;BME280;41730;51.960;20.158;2023-07-08T03:38:12;100757.17;;;22.04;48.35
55801;BME280;41730;51.960;20.158;2023-07-08T03:40:47;100763.10;;;22.04;48.35
55801;BME280;41730;51.960;20.158;2023-07-08T03:43:19;100760.47;;;22.18;48.21
55801;BME280;41730;51.960;20.158;2023-07-08T03:45:50;100763.41;;;22.44;47.87
55801;BME280;41730;51.960;20.158;2023-07-08T03:48:22;100767.48;;;22.68;47.34
55801;BME280;41730;51.960;20.158;2023-07-08T03:50:53;100769.13;;;22.81;47.02
55801;BME280;41730;51.960;20.158;2023-07-08T03:53:25;100767.17;;;22.91;47.00
55801;BME280;41730;51.960;20.158;2023-07-08T03:55:56;100763.53;;;23.11;46.58
55801;BME280;41730;51.960;20.158;2023-07-08T03:58:28;100766.87;;;23.30;46.24
55801;BME280;41730;51.960;20.158;2023-07-08T04:01:00;100759.88;;;23.44;45.85
55801;BME280;41730;51.960;20.158;2023-07-08T04:03:32;100756.83;;;23.59;45.55
55801;BME280;41730;51.960;20.158;2023-07-08T04:06:04;100754.77;;;23.75;45.16
55801;BME280;41730;51.960;20.158;2023-07-08T04:08:36;100755.86;;;23.89;44.80
55801;BME280;41730;51.960;20.158;2023-07-08T04:11:08;100757.08;;;23.92;44.74
55801;BME280;41730;51.960;20.158;2023-07-08T04:13:39;100757.39;;;23.90;44.66
55801;BME280;41730;51.960;20.158;2023-07-08T04:16:17;100754.05;;;23.98;44.42
55801;BME280;41730;51.960;20.158;2023-07-08T04:18:50;100752.25;;;24.08;44.28
55801;BME280;41730;51.960;20.158;2023-07-08T04:21:24;100753.34;;;24.15;43.98
55801;BME280;41730;51.960;20.158;2023-07-08T04:23:56;100753.70;;;24.27;43.78
55801;BME280;41730;51.960;20.158;2023-07-08T04:26:27;100748.55;;;24.33;43.79
55801;BME280;41730;51.960;20.158;2023-07-08T04:28:59;100747.23;;;24.36;43.69
55801;BME280;41730;51.960;20.158;2023-07-08T04:31:31;100746.73;;;24.40;43.15
55801;BME280;41730;51.960;20.158;2023-07-08T04:34:03;100746.89;;;24.35;43.17
55801;BME280;41730;51.960;20.158;2023-07-08T04:36:36;100748.98;;;24.42;43.22
55801;BME280;41730;51.960;20.158;2023-07-08T04:39:08;100748.69;;;24.69;42.65
55801;BME280;41730;51.960;20.158;2023-07-08T04:41:41;100746.20;;;24.90;42.48
55801;BME280;41730;51.960;20.158;2023-07-08T04:44:14;100746.96;;;25.17;42.31
55801;BME280;41730;51.960;20.158;2023-07-08T04:46:51;100749.14;;;25.51;41.69
55801;BME280;41730;51.960;20.158;2023-07-08T04:49:25;100745.05;;;25.81;41.36
55801;BME280;41730;51.960;20.158;2023-07-08T04:51:58;100744.65;;;25.98;40.96
55801;BME280;41730;51.960;20.158;2023-07-08T04:54:30;100744.56;;;26.15;40.88
55801;BME280;41730;51.960;20.158;2023-07-08T04:57:01;100747.64;;;26.39;40.41
55801;BME280;41730;51.960;20.158;2023-07-08T04:59:33;100745.46;;;26.62;40.05
55801;BME280;41730;51.960;20.158;2023-07-08T05:02:05;100745.21;;;26.80;39.58
55801;BME280;41730;51.960;20.158;2023-07-08T05:04:37;100746.30;;;26.89;39.20
55801;BME280;41730;51.960;20.158;2023-07-08T05:07:09;100744.39;;;26.95;38.88
55801;BME280;41730;51.960;20.158;2023-07-08T05:09:41;100743.52;;;27.05;38.64
55801;BME280;41730;51.960;20.158;2023-07-08T05:12:12;100739.38;;;27.17;38.20
55801;BME280;41730;51.960;20.158;2023-07-08T05:14:44;100737.95;;;27.23;37.94
55801;BME280;41730;51.960;20.158;2023-07-08T05:17:17;100734.11;;;27.21;37.84
55801;BME280;41730;51.960;20.158;2023-07-08T05:19:49;100732.20;;;27.44;37.31
55801;BME280;41730;51.960;20.158;2023-07-08T05:22:22;100734.11;;;27.58;37.09
55801;BME280;41730;51.960;20.158;2023-07-08T05:24:56;100735.17;;;27.62;36.74
55801;BME280;41730;51.960;20.158;2023-07-08T05:27:28;100733.49;;;27.63;36.42
55801;BME280;41730;51.960;20.158;2023-07-08T05:30:01;100736.88;;;27.66;36.29
55801;BME280;41730;51.960;20.158;2023-07-08T05:32:33;100736.12;;;27.70;36.03
55801;BME280;41730;51.960;20.158;2023-07-08T05:35:05;100735.94;;;27.71;35.90
55801;BME280;41730;51.960;20.158;2023-07-08T05:37:39;100736.46;;;27.76;35.91
55801;BME280;41730;51.960;20.158;2023-07-08T05:40:12;100734.27;;;27.98;35.45
55801;BME280;41730;51.960;20.158;2023-07-08T05:42:43;100730.95;;;28.33;34.98
55801;BME280;41730;51.960;20.158;2023-07-08T05:45:15;100728.26;;;28.40;34.75
55801;BME280;41730;51.960;20.158;2023-07-08T05:47:46;100724.08;;;28.41;34.59
55801;BME280;41730;51.960;20.158;2023-07-08T05:50:18;100716.50;;;28.50;34.38
55801;BME280;41730;51.960;20.158;2023-07-08T05:52:50;100715.69;;;28.57;34.48
55801;BME280;41730;51.960;20.158;2023-07-08T05:55:22;100714.11;;;28.62;34.51
55801;BME280;41730;51.960;20.158;2023-07-08T05:57:53;100713.62;;;28.78;34.30
55801;BME280;41730;51.960;20.158;2023-07-08T06:00:25;100712.52;;;28.92;34.27
55801;BME280;41730;51.960;20.158;2023-07-08T06:03:07;100717.58;;;28.87;34.35
55801;BME280;41730;51.960;20.158;2023-07-08T06:05:39;100716.92;;;28.92;34.32
55801;BME280;41730;51.960;20.158;2023-07-08T06:08:12;100714.02;;;29.00;34.20
55801;BME280;41730;51.960;20.158;2023-07-08T06:10:45;100716.56;;;29.04;34.20
55801;BME280;41730;51.960;20.158;2023-07-08T06:13:16;100712.02;;;29.19;33.99
55801;BME280;41730;51.960;20.158;2023-07-08T06:15:48;100715.02;;;29.46;33.83
55801;BME280;41730;51.960;20.158;2023-07-08T06:18:20;100709.82;;;29.60;33.57
55801;BME280;41730;51.960;20.158;2023-07-08T06:20:56;100710.85;;;29.63;33.55
55801;BME280;41730;51.960;20.158;2023-07-08T06:23:29;100708.88;;;29.77;33.45
55801;BME280;41730;51.960;20.158;2023-07-08T06:26:01;100706.98;;;29.92;33.27
55801;BME280;41730;51.960;20.158;2023-07-08T06:28:32;100714.48;;;29.98;33.11
55801;BME280;41730;51.960;20.158;2023-07-08T06:31:04;100712.17;;;30.15;33.04
55801;BME280;41730;51.960;20.158;2023-07-08T06:33:36;100711.70;;;30.29;32.84
55801;BME280;41730;51.960;20.158;2023-07-08T06:36:07;100708.55;;;30.44;32.60
55801;BME280;41730;51.960;20.158;2023-07-08T06:38:39;100708.44;;;30.57;32.45
55801;BME280;41730;51.960;20.158;2023-07-08T06:41:11;100702.94;;;30.79;32.14
55801;BME280;41730;51.960;20.158;2023-07-08T06:43:42;100702.64;;;30.96;31.85
55801;BME280;41730;51.960;20.158;2023-07-08T06:46:14;100705.19;;;30.99;32.00
55801;BME280;41730;51.960;20.158;2023-07-08T06:48:46;100705.64;;;30.97;31.89
55801;BME280;41730;51.960;20.158;2023-07-08T06:51:18;100703.45;;;31.00;31.76
55801;BME280;41730;51.960;20.158;2023-07-08T06:53:50;100707.05;;;31.12;31.55
55801;BME280;41730;51.960;20.158;2023-07-08T06:56:22;100696.48;;;31.22;31.50
55801;BME280;41730;51.960;20.158;2023-07-08T06:58:54;100698.79;;;31.21;31.35
55801;BME280;41730;51.960;20.158;2023-07-08T07:01:27;100699.21;;;31.32;30.87
55801;BME280;41730;51.960;20.158;2023-07-08T07:03:59;100694.36;;;31.35;30.64
55801;BME280;41730;51.960;20.158;2023-07-08T07:06:31;100699.70;;;31.49;30.61
55801;BME280;41730;51.960;20.158;2023-07-08T07:09:03;100698.05;;;31.66;29.69
55801;BME280;41730;51.960;20.158;2023-07-08T07:11:35;100693.54;;;31.77;28.44
55801;BME280;41730;51.960;20.158;2023-07-08T07:14:07;100699.80;;;31.72;28.34
55801;BME280;41730;51.960;20.158;2023-07-08T07:16:42;100698.50;;;31.62;28.44
55801;BME280;41730;51.960;20.158;2023-07-08T07:19:34;100696.93;;;31.58;28.37
55801;BME280;41730;51.960;20.158;2023-07-08T07:22:06;100692.05;;;31.37;28.12
55801;BME280;41730;51.960;20.158;2023-07-08T07:24:38;100697.86;;;31.25;27.51
55801;BME280;41730;51.960;20.158;2023-07-08T07:27:11;100698.05;;;31.10;27.40
55801;BME280;41730;51.960;20.158;2023-07-08T07:29:45;100700.53;;;31.09;27.47
55801;BME280;41730;51.960;20.158;2023-07-08T07:32:18;100699.38;;;31.04;27.05
55801;BME280;41730;51.960;20.158;2023-07-08T07:34:51;100700.09;;;30.92;27.30
55801;BME280;41730;51.960;20.158;2023-07-08T07:37:23;100700.76;;;30.89;27.44
55801;BME280;41730;51.960;20.158;2023-07-08T07:39:55;100697.20;;;30.90;27.48
55801;BME280;41730;51.960;20.158;2023-07-08T07:42:28;100693.98;;;30.98;27.76
55801;BME280;41730;51.960;20.158;2023-07-08T07:45:00;100699.78;;;31.09;27.93
55801;BME280;41730;51.960;20.158;2023-07-08T07:47:31;100696.81;;;31.24;27.73
55801;BME280;41730;51.960;20.158;2023-07-08T07:50:06;100694.30;;;31.39;27.31
55801;BME280;41730;51.960;20.158;2023-07-08T07:52:40;100690.11;;;31.38;27.23
55801;BME280;41730;51.960;20.158;2023-07-08T07:55:15;100692.75;;;31.54;27.11
55801;BME280;41730;51.960;20.158;2023-07-08T07:57:47;100693.63;;;31.59;27.01
55801;BME280;41730;51.960;20.158;2023-07-08T08:00:19;100687.91;;;31.63;26.85
55801;BME280;41730;51.960;20.158;2023-07-08T08:02:51;100693.48;;;31.77;26.89
55801;BME280;41730;51.960;20.158;2023-07-08T08:05:23;100696.34;;;31.74;26.48
55801;BME280;41730;51.960;20.158;2023-07-08T08:07:55;100694.63;;;31.77;26.51
55801;BME280;41730;51.960;20.158;2023-07-08T08:10:26;100692.69;;;31.97;26.08
55801;BME280;41730;51.960;20.158;2023-07-08T08:12:59;100693.38;;;32.02;26.04
55801;BME280;41730;51.960;20.158;2023-07-08T08:15:31;100694.30;;;31.96;26.15
55801;BME280;41730;51.960;20.158;2023-07-08T08:18:03;100694.55;;;31.95;25.38
55801;BME280;41730;51.960;20.158;2023-07-08T08:20:35;100696.71;;;31.89;25.60
55801;BME280;41730;51.960;20.158;2023-07-08T08:23:07;100694.17;;;31.94;25.63
55801;BME280;41730;51.960;20.158;2023-07-08T08:25:39;100695.18;;;32.03;25.43
55801;BME280;41730;51.960;20.158;2023-07-08T08:28:11;100695.37;;;32.17;25.45
55801;BME280;41730;51.960;20.158;2023-07-08T08:30:42;100694.95;;;32.18;25.30
55801;BME280;41730;51.960;20.158;2023-07-08T08:33:18;100693.04;;;32.12;24.95
55801;BME280;41730;51.960;20.158;2023-07-08T08:35:50;100692.83;;;31.86;24.95
55801;BME280;41730;51.960;20.158;2023-07-08T08:38:22;100689.22;;;31.59;25.31
55801;BME280;41730;51.960;20.158;2023-07-08T08:40:54;100687.93;;;31.45;25.17
55801;BME280;41730;51.960;20.158;2023-07-08T08:43:34;100682.89;;;31.27;25.06
55801;BME280;41730;51.960;20.158;2023-07-08T08:46:23;100685.95;;;30.98;25.56
55801;BME280;41730;51.960;20.158;2023-07-08T08:49:02;100681.90;;;30.93;25.76
55801;BME280;41730;51.960;20.158;2023-07-08T08:51:36;100684.48;;;31.10;25.50
55801;BME280;41730;51.960;20.158;2023-07-08T08:54:10;100688.80;;;31.30;25.54
55801;BME280;41730;51.960;20.158;2023-07-08T08:56:51;100685.13;;;31.32;25.50
55801;BME280;41730;51.960;20.158;2023-07-08T08:59:42;100687.69;;;31.29;25.08
55801;BME280;41730;51.960;20.158;2023-07-08T09:02:30;100681.95;;;31.16;25.38
55801;BME280;41730;51.960;20.158;2023-07-08T09:05:08;100686.61;;;31.23;25.55
55801;BME280;41730;51.960;20.158;2023-07-08T09:07:46;100685.94;;;31.19;25.47
55801;BME280;41730;51.960;20.158;2023-07-08T09:10:25;100693.02;;;31.08;25.54
55801;BME280;41730;51.960;20.158;2023-07-08T09:13:03;100686.44;;;31.11;25.39
55801;BME280;41730;51.960;20.158;2023-07-08T09:15:36;100681.88;;;31.24;25.34
55801;BME280;41730;51.960;20.158;2023-07-08T09:18:17;100683.07;;;31.29;25.64
55801;BME280;41730;51.960;20.158;2023-07-08T09:20:50;100684.30;;;31.39;25.55
55801;BME280;41730;51.960;20.158;2023-07-08T09:23:25;100683.68;;;31.38;25.53
55801;BME280;41730;51.960;20.158;2023-07-08T09:26:01;100682.28;;;31.42;25.82
55801;BME280;41730;51.960;20.158;2023-07-08T09:28:42;100683.48;;;31.49;25.86
55801;BME280;41730;51.960;20.158;2023-07-08T09:31:23;100676.80;;;31.67;25.83
55801;BME280;41730;51.960;20.158;2023-07-08T09:34:09;100678.46;;;31.81;25.73
55801;BME280;41730;51.960;20.158;2023-07-08T09:36:43;100676.27;;;31.94;25.39
55801;BME280;41730;51.960;20.158;2023-07-08T09:39:17;100673.48;;;32.09;24.30
55801;BME280;41730;51.960;20.158;2023-07-08T09:41:50;100675.89;;;31.99;24.16
55801;BME280;41730;51.960;20.158;2023-07-08T09:44:26;100667.62;;;31.63;24.33
55801;BME280;41730;51.960;20.158;2023-07-08T09:47:00;100670.93;;;31.42;24.81
55801;BME280;41730;51.960;20.158;2023-07-08T09:49:32;100671.48;;;31.47;25.04
55801;BME280;41730;51.960;20.158;2023-07-08T09:52:06;100667.96;;;31.65;25.15
55801;BME280;41730;51.960;20.158;2023-07-08T09:54:40;100661.29;;;31.87;25.26
55801;BME280;41730;51.960;20.158;2023-07-08T09:57:18;100664.94;;;32.02;25.16
55801;BME280;41730;51.960;20.158;2023-07-08T09:59:57;100657.73;;;32.35;24.92
55801;BME280;41730;51.960;20.158;2023-07-08T10:02:38;100655.79;;;32.73;24.70
55801;BME280;41730;51.960;20.158;2023-07-08T10:05:16;100659.21;;;32.83;24.47
55801;BME280;41730;51.960;20.158;2023-07-08T10:07:52;100657.73;;;32.98;24.10
55801;BME280;41730;51.960;20.158;2023-07-08T10:10:28;100654.95;;;33.09;23.96
55801;BME280;41730;51.960;20.158;2023-07-08T10:13:03;100654.14;;;33.10;24.32
55801;BME280;41730;51.960;20.158;2023-07-08T10:15:39;100647.39;;;33.25;23.98
55801;BME280;41730;51.960;20.158;2023-07-08T10:18:15;100644.56;;;33.29;24.37
55801;BME280;41730;51.960;20.158;2023-07-08T10:20:54;100639.55;;;33.49;24.31
55801;BME280;41730;51.960;20.158;2023-07-08T10:23:38;100641.76;;;33.81;23.54
55801;BME280;41730;51.960;20.158;2023-07-08T10:26:21;100639.90;;;33.80;22.29
55801;BME280;41730;51.960;20.158;2023-07-08T10:29:06;100639.31;;;33.27;22.54
55801;BME280;41730;51.960;20.158;2023-07-08T10:31:48;100642.80;;;32.69;23.28
55801;BME280;41730;51.960;20.158;2023-07-08T10:34:36;100638.98;;;32.30;23.80
55801;BME280;41730;51.960;20.158;2023-07-08T10:37:19;100636.52;;;32.15;23.80
55801;BME280;41730;51.960;20.158;2023-07-08T10:40:05;100633.82;;;32.03;24.17
55801;BME280;41730;51.960;20.158;2023-07-08T10:42:50;100634.56;;;31.86;24.25
55801;BME280;41730;51.960;20.158;2023-07-08T10:45:32;100633.52;;;31.62;24.21
55801;BME280;41730;51.960;20.158;2023-07-08T10:48:16;100632.77;;;31.46;24.42
55801;BME280;41730;51.960;20.158;2023-07-08T10:51:02;100629.59;;;31.36;24.53
55801;BME280;41730;51.960;20.158;2023-07-08T10:53:47;100617.99;;;31.26;24.66
55801;BME280;41730;51.960;20.158;2023-07-08T10:56:31;100615.38;;;31.15;24.98
55801;BME280;41730;51.960;20.158;2023-07-08T10:59:32;100617.21;;;31.18;24.95
55801;BME280;41730;51.960;20.158;2023-07-08T11:02:42;100618.73;;;31.15;24.72
55801;BME280;41730;51.960;20.158;2023-07-08T11:05:28;100616.30;;;30.98;24.95
55801;BME280;41730;51.960;20.158;2023-07-08T11:08:07;100614.05;;;30.91;24.98
55801;BME280;41730;51.960;20.158;2023-07-08T11:10:48;100616.43;;;30.76;25.30
55801;BME280;41730;51.960;20.158;2023-07-08T11:13:47;100609.18;;;30.74;25.49
55801;BME280;41730;51.960;20.158;2023-07-08T11:16:24;100607.47;;;30.90;25.14
55801;BME280;41730;51.960;20.158;2023-07-08T11:19:03;100604.25;;;30.90;25.06
55801;BME280;41730;51.960;20.158;2023-07-08T11:21:41;100605.17;;;30.94;25.05
55801;BME280;41730;51.960;20.158;2023-07-08T11:24:23;100603.31;;;31.05;25.15
55801;BME280;41730;51.960;20.158;2023-07-08T11:27:02;100600.50;;;31.11;25.28
55801;BME280;41730;51.960;20.158;2023-07-08T11:29:41;100594.48;;;31.37;25.12
55801;BME280;41730;51.960;20.158;2023-07-08T11:32:18;100597.50;;;31.53;24.72
55801;BME280;41730;51.960;20.158;2023-07-08T11:34:53;100595.16;;;31.59;24.49
55801;BME280;41730;51.960;20.158;2023-07-08T11:37:27;100591.52;;;31.47;23.90
55801;BME280;41730;51.960;20.158;2023-07-08T11:40:05;100595.06;;;31.40;24.45
55801;BME280;41730;51.960;20.158;2023-07-08T11:42:41;100597.89;;;31.48;24.43
55801;BME280;41730;51.960;20.158;2023-07-08T11:45:32;100594.57;;;31.44;23.88
55801;BME280;41730;51.960;20.158;2023-07-08T11:48:15;100589.67;;;31.30;24.21
55801;BME280;41730;51.960;20.158;2023-07-08T11:50:49;100584.52;;;31.25;24.51
55801;BME280;41730;51.960;20.158;2023-07-08T11:53:37;100589.14;;;31.21;24.45
55801;BME280;41730;51.960;20.158;2023-07-08T11:56:23;100589.77;;;31.14;24.50
55801;BME280;41730;51.960;20.158;2023-07-08T11:59:08;100593.00;;;31.06;24.73
55801;BME280;41730;51.960;20.158;2023-07-08T12:01:48;100584.53;;;31.06;24.72
55801;BME280;41730;51.960;20.158;2023-07-08T12:04:31;100581.11;;;31.20;24.60
55801;BME280;41730;51.960;20.158;2023-07-08T12:07:09;100578.46;;;31.42;24.64
55801;BME280;41730;51.960;20.158;2023-07-08T12:09:48;100575.43;;;31.48;24.07
55801;BME280;41730;51.960;20.158;2023-07-08T12:12:27;100574.85;;;31.44;23.94
55801;BME280;41730;51.960;20.158;2023-07-08T12:15:12;100572.18;;;31.50;24.24
55801;BME280;41730;51.960;20.158;2023-07-08T12:17:49;100572.71;;;31.47;24.16
55801;BME280;41730;51.960;20.158;2023-07-08T12:20:26;100568.16;;;31.44;23.95
55801;BME280;41730;51.960;20.158;2023-07-08T12:22:59;100568.10;;;31.43;23.81
55801;BME280;41730;51.960;20.158;2023-07-08T12:25:33;100567.80;;;31.45;24.08
55801;BME280;41730;51.960;20.158;2023-07-08T12:28:05;100565.61;;;31.61;24.22
55801;BME280;41730;51.960;20.158;2023-07-08T12:30:37;100563.45;;;31.76;24.13
55801;BME280;41730;51.960;20.158;2023-07-08T12:33:14;100558.77;;;31.82;23.85
55801;BME280;41730;51.960;20.158;2023-07-08T12:35:48;100554.54;;;31.84;23.92
55801;BME280;41730;51.960;20.158;2023-07-08T12:38:23;100547.73;;;31.94;24.08
55801;BME280;41730;51.960;20.158;2023-07-08T12:41:08;100541.11;;;32.03;23.93
55801;BME280;41730;51.960;20.158;2023-07-08T12:43:41;100548.92;;;32.00;24.00
55801;BME280;41730;51.960;20.158;2023-07-08T12:46:13;100548.54;;;32.00;24.17
55801;BME280;41730;51.960;20.158;2023-07-08T12:48:46;100549.40;;;32.08;24.07
55801;BME280;41730;51.960;20.158;2023-07-08T12:51:19;100542.84;;;32.18;23.97
55801;BME280;41730;51.960;20.158;2023-07-08T12:53:52;100535.42;;;32.34;23.64
55801;BME280;41730;51.960;20.158;2023-07-08T12:56:25;100535.91;;;32.50;23.57
55801;BME280;41730;51.960;20.158;2023-07-08T12:58:58;100535.80;;;32.42;23.58
55801;BME280;41730;51.960;20.158;2023-07-08T13:01:33;100533.16;;;32.40;23.57
55801;BME280;41730;51.960;20.158;2023-07-08T13:04:09;100532.64;;;32.32;23.72
55801;BME280;41730;51.960;20.158;2023-07-08T13:06:44;100530.25;;;32.33;23.56
55801;BME280;41730;51.960;20.158;2023-07-08T13:09:35;100529.73;;;32.27;23.59
55801;BME280;41730;51.960;20.158;2023-07-08T13:12:16;100530.63;;;32.22;23.69
55801;BME280;41730;51.960;20.158;2023-07-08T13:14:50;100528.53;;;32.18;23.70
55801;BME280;41730;51.960;20.158;2023-07-08T13:17:23;100527.98;;;32.17;23.62
55801;BME280;41730;51.960;20.158;2023-07-08T13:19:55;100520.10;;;32.29;23.44